Time;durP1;ratioP1;P1;durP2;ratioP2;P2;SDS_P1;SDS_P2;PMS_P1;PMS_P2;Temp;Humidity;BMP_temperature;BMP_pressure;BME280_temperature;BME280_humidity;BME280_pressure;Samples;Min_cycle;Max_cycle;Signal;HPM_P1;HPM_P2
2022/09/22 00:04:17;;;;;;;9.50;8.40;;;;;;;9.01;100.00;100802.31;10384339;28;20042;-72
2022/09/22 00:09:20;;;;;;;8.18;7.47;;;;;;;8.88;100.00;100800.72;10384669;28;20416;-73
2022/09/22 00:14:27;;;;;;;8.02;7.28;;;;;;;8.86;100.00;100797.28;10484223;28;20039;-73
2022/09/22 00:19:29;;;;;;;;;;;;;;;8.84;100.00;100791.16;10596855;28;20044;-72
2022/09/22 00:24:32;;;;;;;7.93;7.32;;;;;;;8.86;100.00;100791.16;10594927;28;20381;-72
2022/09/22 00:29:34;;;;;;;7.40;6.80;;;;;;;8.89;100.00;100786.72;10595212;28;20048;-73
2022/09/22 00:34:35;;;;;;;6.80;6.30;;;;;;;9.03;100.00;100778.69;10594939;28;20046;-72
2022/09/22 00:39:37;;;;;;;8.00;7.30;;;;;;;8.72;100.00;100775.59;10575565;28;20093;-73
2022/09/22 00:44:43;;;;;;;9.48;8.57;;;;;;;8.62;100.00;100773.97;10593113;28;20046;-73
2022/09/22 00:50:13;;;;;;;8.45;7.85;;;;;;;8.48;100.00;100777.63;10575684;28;20048;-72
2022/09/22 00:55:23;;;;;;;9.02;8.25;;;;;;;8.45;100.00;100775.03;10570871;28;20058;-73
2022/09/22 01:00:25;;;;;;;7.47;6.88;;;;;;;8.46;100.00;100768.94;10588899;28;20086;-73
2022/09/22 01:05:29;;;;;;;8.85;7.95;;;;;;;8.83;100.00;100774.56;10588941;28;20446;-72
2022/09/22 01:10:30;;;;;;;8.07;7.47;;;;;;;8.90;100.00;100766.63;10588647;28;20048;-72
2022/09/22 01:15:45;;;;;;;8.00;7.35;;;;;;;8.62;100.00;100760.88;10588212;28;20035;-72
2022/09/22 01:20:53;;;;;;;7.13;6.57;;;;;;;8.37;100.00;100761.19;10588206;28;20035;-73
2022/09/22 01:26:16;;;;;;;9.25;8.35;;;;;;;8.52;100.00;100763.59;10589452;28;20044;-73
2022/09/22 01:31:42;;;;;;;7.07;6.50;;;;;;;8.16;100.00;100769.22;10588793;28;20075;-72
2022/09/22 01:37:06;;;;;;;5.45;4.95;;;;;;;8.03;100.00;100771.94;10587041;28;20032;-72
2022/09/22 01:42:14;;;;;;;7.70;6.93;;;;;;;8.15;100.00;100770.97;10586453;28;20067;-72
2022/09/22 01:47:23;;;;;;;8.07;7.47;;;;;;;8.23;100.00;100776.13;10586238;28;20389;-72
2022/09/22 01:52:28;;;;;;;9.38;8.57;;;;;;;8.29;100.00;100763.84;10586723;28;20066;-73
2022/09/22 01:57:38;;;;;;;8.65;7.95;;;;;;;8.37;100.00;100768.13;10567858;28;20085;-73
2022/09/22 02:02:51;;;;;;;7.55;6.88;;;;;;;8.34;100.00;100761.16;10567259;28;20040;-73
2022/09/22 02:07:55;;;;;;;8.45;7.65;;;;;;;7.95;100.00;100760.69;10585437;28;20464;-73
2022/09/22 02:12:59;;;;;;;7.88;7.28;;;;;;;7.67;100.00;100756.59;10585377;28;20044;-73
2022/09/22 02:18:08;;;;;;;8.57;7.70;;;;;;;7.88;100.00;100752.88;10567041;28;20522;-72
2022/09/22 02:23:09;;;;;;;8.77;7.97;;;;;;;7.98;100.00;100754.56;10586725;28;20088;-72
2022/09/22 02:28:16;;;;;;;7.72;7.15;;;;;;;7.52;100.00;100753.19;10584788;28;20043;-72
2022/09/22 02:33:22;;;;;;;7.78;7.28;;;;;;;7.29;100.00;100755.13;10587306;28;20042;-72
2022/09/22 02:38:58;;;;;;;9.27;8.48;;;;;;;7.75;100.00;100749.53;10584743;28;20047;-72
2022/09/22 02:44:12;;;;;;;8.15;7.43;;;;;;;7.73;100.00;100749.53;10583979;28;20134;-72
2022/09/22 02:49:17;;;;;;;7.50;6.90;;;;;;;7.34;100.00;100745.47;10583010;28;20516;-72
2022/09/22 02:54:19;;;;;;;8.75;7.95;;;;;;;7.14;100.00;100753.47;10582343;28;20044;-72
2022/09/22 02:59:21;;;;;;;9.10;8.20;;;;;;;6.95;100.00;100750.13;10582718;28;20043;-72
2022/09/22 03:04:23;;;;;;;10.65;9.73;;;;;;;6.86;100.00;100746.66;10583408;28;20039;-72
2022/09/22 03:09:25;;;;;;;8.95;8.30;;;;;;;6.80;100.00;100735.34;10583993;28;20463;-72
2022/09/22 03:14:26;;;;;;;8.75;8.02;;;;;;;6.80;100.00;100744.94;10583752;28;20088;-72
2022/09/22 03:19:28;;;;;;;8.10;7.50;;;;;;;7.06;100.00;100735.22;10584170;28;20074;-72
2022/09/22 03:24:30;;;;;;;8.90;8.02;;;;;;;6.97;100.00;100745.72;10594655;28;20073;-72
2022/09/22 03:29:31;;;;;;;9.38;8.57;;;;;;;6.59;100.00;100743.28;10596604;28;20123;-72
2022/09/22 03:34:33;;;;;;;10.27;8.50;;;;;;;6.52;100.00;100739.84;10597828;28;20481;-73
2022/09/22 03:39:35;;;;;;;9.25;8.55;;;;;;;7.01;100.00;100741.34;10595805;28;20184;-72
2022/09/22 03:44:36;;;;;;;8.82;8.02;;;;;;;7.12;100.00;100743.91;10595963;28;20036;-73
2022/09/22 03:49:38;;;;;;;12.27;8.02;;;;;;;6.73;100.00;100740.63;10578068;28;20047;-72
2022/09/22 03:54:39;;;;;;;10.13;9.23;;;;;;;6.81;100.00;100737.09;10595955;28;20039;-72
2022/09/22 03:59:41;;;;;;;8.77;8.15;;;;;;;6.93;100.00;100730.94;10595509;28;20031;-72
2022/09/22 04:04:43;;;;;;;10.48;9.55;;;;;;;6.75;100.00;100736.28;10595546;28;20381;-72
2022/09/22 04:09:44;;;;;;;10.85;9.93;;;;;;;6.54;100.00;100730.25;10594789;28;20040;-72
2022/09/22 04:14:46;;;;;;;8.90;8.10;;;;;;;6.30;100.00;100730.38;10595337;28;20063;-72
2022/09/22 04:19:48;;;;;;;12.93;9.52;;;;;;;6.31;100.00;100722.50;10594893;28;20043;-72
2022/09/22 04:24:50;;;;;;;11.07;10.00;;;;;;;6.11;100.00;100726.94;10594817;28;20039;-72
2022/09/22 04:29:51;;;;;;;9.45;8.65;;;;;;;6.07;100.00;100733.03;10576151;28;20062;-72
2022/09/22 04:34:53;;;;;;;9.38;8.68;;;;;;;6.07;100.00;100731.28;10571503;28;20044;-72
2022/09/22 04:39:55;;;;;;;9.25;8.55;;;;;;;6.07;100.00;100738.25;10571455;28;20052;-72
2022/09/22 04:45:00;;;;;;;10.30;9.52;;;;;;;6.40;100.00;100729.44;10587725;28;20031;-72
2022/09/22 04:50:02;;;;;;;9.00;8.30;;;;;;;6.18;100.00;100726.03;10587664;28;20035;-72
2022/09/22 04:55:04;;;;;;;9.88;9.07;;;;;;;5.98;100.00;100728.72;10587675;28;20084;-72
2022/09/22 05:00:07;;;;;;;10.52;9.73;;;;;;;5.85;100.00;100745.22;10587992;28;20100;-71
2022/09/22 05:05:09;;;;;;;13.10;11.85;;;;;;;5.75;100.00;100743.47;10587127;28;20131;-73
2022/09/22 05:10:16;;;;;;;16.60;15.30;;;;;;;5.88;100.00;100752.16;10587578;28;20048;-72
2022/09/22 05:15:19;;;;;;;12.85;11.95;;;;;;;5.99;100.00;100759.16;10586981;28;20123;-72
2022/09/22 05:20:21;;;;;;;27.35;13.35;;;;;;;5.92;100.00;100766.97;10586775;28;20519;-72
2022/09/22 05:25:22;;;;;;;21.23;12.50;;;;;;;6.04;100.00;100775.66;10586213;28;20043;-72
2022/09/22 05:30:25;;;;;;;13.40;12.45;;;;;;;6.04;100.00;100775.66;10586875;28;20055;-72
2022/09/22 05:35:27;;;;;;;10.85;10.15;;;;;;;6.30;100.00;100774.75;10586156;28;20118;-73
2022/09/22 05:40:34;;;;;;;25.70;11.50;;;;;;;6.62;100.00;100774.63;10586361;28;20414;-73
2022/09/22 05:45:36;;;;;;;10.63;9.82;;;;;;;6.74;100.00;100779.81;10585146;28;20044;-72
2022/09/22 05:50:38;;;;;;;9.45;8.75;;;;;;;6.63;100.00;100772.88;10585417;28;20047;-73
2022/09/22 05:55:40;;;;;;;12.57;11.68;;;;;;;6.87;100.00;100774.56;10567126;28;20075;-73
2022/09/22 06:00:42;;;;;;;13.93;12.93;;;;;;;6.92;100.00;100783.22;10585359;28;20051;-72
2022/09/22 06:05:44;;;;;;;13.02;12.02;;;;;;;7.22;100.00;100772.59;10585082;28;20508;-72
2022/09/22 06:10:47;;;;;;;13.73;12.63;;;;;;;7.39;100.00;100767.25;10585354;28;20493;-72
2022/09/22 06:15:49;;;;;;;12.82;11.63;;;;;;;7.38;100.00;100770.75;10585058;28;20061;-72
2022/09/22 06:20:54;;;;;;;13.95;12.77;;;;;;;7.51;100.00;100763.69;10584613;28;20459;-71
2022/09/22 06:25:58;;;;;;;13.23;12.23;;;;;;;7.57;100.00;100767.13;10583861;28;20523;-72
2022/09/22 06:30:59;;;;;;;11.13;10.40;;;;;;;7.90;100.00;100770.34;10566278;28;20048;-73
2022/09/22 06:36:01;;;;;;;12.23;11.10;;;;;;;7.91;100.00;100782.53;10583534;28;20039;-73
2022/09/22 06:41:05;;;;;;;11.25;9.77;;;;;;;7.98;100.00;100786.84;10584933;28;20378;-71
2022/09/22 06:46:09;;;;;;;10.65;9.75;;;;;;;8.23;100.00;100778.72;10583147;28;20097;-72
2022/09/22 06:51:11;;;;;;;9.93;9.10;;;;;;;8.32;100.00;100776.00;10583747;28;20074;-72
2022/09/22 06:56:16;;;;;;;12.00;10.27;;;;;;;8.43;100.00;100776.81;10582438;28;20039;-71
2022/09/22 07:01:18;;;;;;;15.88;10.18;;;;;;;8.33;100.00;100778.63;10584059;28;20054;-72
2022/09/22 07:06:21;;;;;;;12.07;11.07;;;;;;;8.42;100.00;100779.47;10564821;28;20031;-72
2022/09/22 07:11:22;;;;;;;14.75;12.30;;;;;;;8.52;100.00;100779.31;10583236;28;20048;-72
2022/09/22 07:16:25;;;;;;;13.45;12.25;;;;;;;8.95;100.00;100777.94;10564568;28;20040;-71
2022/09/22 07:21:36;;;;;;;18.52;12.20;;;;;;;9.24;100.00;100778.38;10582790;28;20408;-72
2022/09/22 07:26:38;;;;;;;12.90;11.30;;;;;;;9.60;100.00;100774.31;10582403;28;20044;-72
2022/09/22 07:31:40;;;;;;;11.25;10.23;;;;;;;9.39;100.00;100769.44;10582403;28;20069;-73
2022/09/22 07:36:42;;;;;;;11.10;9.95;;;;;;;9.55;100.00;100780.56;10582328;28;20048;-73
2022/09/22 07:41:45;;;;;;;14.60;10.52;;;;;;;9.57;100.00;100773.53;10584094;28;20097;-74
2022/09/22 07:46:47;;;;;;;11.52;10.63;;;;;;;10.06;100.00;100781.44;10581925;28;20040;-74
2022/09/22 07:51:53;;;;;;;11.02;10.00;;;;;;;10.07;99.00;100784.94;10556317;28;20047;-74
2022/09/22 07:56:57;;;;;;;12.70;11.52;;;;;;;9.98;99.48;100774.59;10563998;28;20036;-74
2022/09/22 08:02:00;;;;;;;13.68;11.02;;;;;;;10.25;97.54;100778.53;10565292;28;20489;-73
2022/09/22 08:07:01;;;;;;;12.35;11.25;;;;;;;10.65;94.08;100777.75;10582336;28;20088;-73
2022/09/22 08:12:03;;;;;;;14.13;10.65;;;;;;;10.42;95.43;100780.84;10572496;28;20039;-73
2022/09/22 08:17:05;;;;;;;11.25;10.32;;;;;;;10.48;94.76;100784.19;10590009;28;20043;-74
2022/09/22 08:22:09;;;;;;;13.25;10.75;;;;;;;10.51;94.67;100785.91;10589809;28;20105;-73
2022/09/22 08:27:11;;;;;;;10.77;9.85;;;;;;;10.68;94.49;100789.09;10590104;28;20040;-73
2022/09/22 08:32:18;;;;;;;11.40;10.40;;;;;;;10.74;94.73;100793.34;10591466;28;20096;-74
2022/09/22 08:37:22;;;;;;;12.95;10.93;;;;;;;10.79;91.71;100784.44;10589195;28;20040;-73
2022/09/22 08:42:27;;;;;;;9.77;8.77;;;;;;;11.09;92.29;100782.94;10589872;28;20054;-73
2022/09/22 08:53:08;;;;;;;7.75;6.55;;;;;;;11.44;87.41;100786.53;10563094;28;20032;-73
2022/09/22 08:58:33;;;;;;;5.50;5.07;;;;;;;11.88;82.99;100774.09;10569743;28;20036;-73
2022/09/22 09:03:45;;;;;;;3.45;3.20;;;;;;;11.82;82.87;100783.03;10588048;28;20047;-73
2022/09/22 09:08:49;;;;;;;3.05;2.85;;;;;;;12.56;78.66;100775.78;10556809;28;20048;-73
2022/09/22 09:13:57;;;;;;;6.53;3.92;;;;;;;12.74;76.17;100784.94;10526893;28;20044;-72
2022/09/22 09:19:32;;;;;;;5.10;4.70;;;;;;;12.77;77.28;100780.47;10543597;28;20044;-73
2022/09/22 09:24:46;;;;;;;6.70;4.75;;;;;;;13.48;75.11;100773.06;10565027;28;20044;-73
2022/09/22 09:30:16;;;;;;;6.35;4.03;;;;;;;13.96;71.54;100781.16;10585854;28;20043;-73
2022/09/22 09:35:28;;;;;;;3.97;3.28;;;;;;;14.95;66.86;100791.78;10585652;28;20040;-73
2022/09/22 09:40:30;;;;;;;3.63;3.05;;;;;;;14.12;65.92;100776.19;10585801;28;20043;-73
2022/09/22 09:45:50;;;;;;;4.15;3.80;;;;;;;14.29;67.66;100772.97;10585274;28;20074;-74
2022/09/22 09:50:52;;;;;;;4.00;3.70;;;;;;;14.29;66.06;100772.97;10585265;28;20069;-75
2022/09/22 09:55:53;;;;;;;3.38;3.08;;;;;;;14.88;65.85;100776.13;10566645;28;20043;-75
2022/09/22 10:00:58;;;;;;;3.63;3.33;;;;;;;15.32;67.16;100773.56;10560916;28;20049;-74
2022/09/22 10:06:08;;;;;;;3.53;3.22;;;;;;;16.08;60.47;100766.91;10570471;28;20036;-74
2022/09/22 10:11:13;;;;;;;3.05;2.80;;;;;;;16.77;58.53;100760.34;10542746;28;20468;-74
2022/09/22 10:16:25;;;;;;;2.87;2.67;;;;;;;17.10;58.98;100750.81;10571911;28;20036;-74
2022/09/22 10:21:27;;;;;;;3.15;2.88;;;;;;;17.27;54.59;100744.72;10585083;28;20043;-74
2022/09/22 10:26:31;;;;;;;3.63;2.60;;;;;;;18.05;55.96;100746.16;10584704;28;20043;-74
2022/09/22 10:31:36;;;;;;;1.88;1.60;;;;;;;18.07;50.28;100738.97;10569282;28;20082;-74
2022/09/22 10:36:43;;;;;;;1.60;1.50;;;;;;;17.90;49.87;100741.63;10542075;28;20036;-74
2022/09/22 10:41:47;;;;;;;2.33;1.40;;;;;;;17.93;49.96;100740.59;10541516;28;20130;-74
2022/09/22 10:47:15;;;;;;;1.10;1.00;;;;;;;17.72;50.16;100737.22;10541152;28;20040;-73
2022/09/22 10:52:42;;;;;;;1.95;1.23;;;;;;;17.12;49.77;100743.63;10541563;28;20105;-73
2022/09/22 10:57:55;;;;;;;1.50;1.40;;;;;;;16.42;55.06;100741.53;10535117;28;20105;-73
2022/09/22 11:03:27;;;;;;;1.60;1.50;;;;;;;16.28;54.45;100736.84;10583731;28;20048;-73
2022/09/22 11:14:14;;;;;;;1.60;1.20;;;;;;;16.55;52.80;100731.25;10545351;28;20455;-73
2022/09/22 11:19:46;;;;;;;1.80;0.80;;;;;;;15.97;53.42;100725.84;10528469;28;20555;-73
2022/09/22 11:24:57;;;;;;;1.33;0.80;;;;;;;15.70;51.27;100728.75;10545272;28;20036;-74
2022/09/22 11:30:20;;;;;;;1.38;0.77;;;;;;;15.54;51.22;100725.00;10545926;28;20197;-75
2022/09/22 11:35:27;;;;;;;0.40;0.40;;;;;;;16.19;47.03;100729.28;10527900;28;20055;-75
2022/09/22 11:40:54;;;;;;;3.30;0.60;;;;;;;16.68;44.43;100710.31;10545196;28;20055;-74
2022/09/22 11:46:46;;;;;;;0.55;0.40;;;;;;;16.77;42.80;100713.41;10550930;28;20131;-74
2022/09/22 11:52:01;;;;;;;0.40;0.40;;;;;;;17.27;40.91;100706.66;10325848;28;20487;-73
2022/09/22 11:57:10;;;;;;;0.73;0.43;;;;;;;17.53;42.31;100692.94;10348804;28;20042;-74
2022/09/22 12:02:25;;;;;;;1.85;0.60;;;;;;;17.81;43.75;100689.78;10384586;28;20121;-74
2022/09/22 12:07:35;;;;;;;0.93;0.50;;;;;;;17.25;44.74;100680.13;10354686;28;20050;-75
2022/09/22 12:12:41;;;;;;;0.63;0.40;;;;;;;16.66;45.06;100686.50;10341758;28;20173;-74
2022/09/22 12:17:58;;;;;;;0.50;0.30;;;;;;;16.12;45.28;100680.97;10341496;28;20042;-75
2022/09/22 12:23:18;;;;;;;0.98;0.80;;;;;;;15.92;45.28;100667.72;10340537;28;20050;-74
2022/09/22 12:28:26;;;;;;;0.77;0.50;;;;;;;15.83;48.32;100673.44;10517449;28;20489;-74
2022/09/22 12:33:32;;;;;;;0.57;0.40;;;;;;;15.50;48.26;100667.75;10552586;28;20054;-74
2022/09/22 12:38:34;;;;;;;0.85;0.32;;;;;;;15.54;45.30;100667.56;10534342;28;20098;-74
2022/09/22 12:43:36;;;;;;;0.85;0.30;;;;;;;15.44;42.99;100670.66;10552503;28;20044;-74
2022/09/22 12:48:38;;;;;;;0.30;0.30;;;;;;;15.43;44.25;100660.97;10550653;28;20055;-74
2022/09/22 12:53:39;;;;;;;0.43;0.38;;;;;;;15.28;43.69;100660.69;10548483;28;20048;-74
2022/09/22 12:58:44;;;;;;;0.80;0.45;;;;;;;15.43;43.68;100656.53;10515206;28;20567;-74
2022/09/22 13:03:49;;;;;;;0.93;0.20;;;;;;;15.55;42.62;100653.38;10530031;28;20541;-74
2022/09/22 13:08:53;;;;;;;0.43;0.40;;;;;;;15.40;43.29;100656.66;10588560;28;20036;-75
2022/09/22 13:13:55;;;;;;;0.52;0.40;;;;;;;15.35;43.81;100658.66;10590345;28;20471;-74
2022/09/22 13:18:58;;;;;;;0.70;0.40;;;;;;;15.04;43.01;100654.59;10588058;28;20122;-74
2022/09/22 13:24:01;;;;;;;0.95;0.40;;;;;;;15.00;42.66;100658.28;10569252;28;20507;-75
2022/09/22 13:29:16;;;;;;;0.98;0.40;;;;;;;14.62;43.33;100654.53;10570252;28;20035;-75
2022/09/22 13:34:35;;;;;;;0.55;0.50;;;;;;;14.92;43.08;100647.19;10587368;28;20050;-75
2022/09/22 13:39:40;;;;;;;1.05;0.30;;;;;;;15.02;42.95;100642.38;10588194;28;20481;-76
2022/09/22 13:44:57;;;;;;;0.47;0.32;;;;;;;15.10;41.62;100646.44;10569020;28;20077;-76
2022/09/22 13:50:05;;;;;;;0.57;0.30;;;;;;;14.95;40.66;100636.44;10569065;28;20068;-76
2022/09/22 13:55:13;;;;;;;0.55;0.20;;;;;;;14.76;40.72;100630.16;10587424;28;20070;-76
2022/09/22 14:00:25;;;;;;;0.20;0.20;;;;;;;14.76;40.94;100632.81;10586963;28;20040;-76
2022/09/22 14:05:30;;;;;;;0.38;0.30;;;;;;;14.97;39.76;100616.09;10574389;28;20040;-75
2022/09/22 14:10:32;;;;;;;0.35;0.30;;;;;;;14.70;41.49;100623.34;10509744;28;20054;-76
2022/09/22 14:15:42;;;;;;;0.43;0.40;;;;;;;14.67;40.69;100619.94;10544445;28;20063;-74
2022/09/22 14:20:45;;;;;;;0.28;0.20;;;;;;;14.88;40.91;100609.38;10549263;28;20044;-74
2022/09/22 14:25:47;;;;;;;0.30;0.30;;;;;;;14.61;42.01;100606.03;10566300;28;20047;-74
2022/09/22 14:30:49;;;;;;;2.75;0.50;;;;;;;14.62;44.74;100606.91;10586139;28;20043;-75
2022/09/22 14:35:59;;;;;;;1.13;0.43;;;;;;;14.79;47.26;100614.19;10549812;28;20115;-74
2022/09/22 14:41:01;;;;;;;1.55;0.57;;;;;;;14.89;46.70;100602.28;10543760;28;20063;-74
2022/09/22 14:46:21;;;;;;;0.85;0.50;;;;;;;14.93;47.37;100603.03;10544416;28;20402;-74
2022/09/22 14:51:34;;;;;;;0.80;0.40;;;;;;;14.93;47.74;100601.25;10565604;28;20058;-75
2022/09/22 14:56:58;;;;;;;0.40;0.40;;;;;;;14.99;47.75;100600.97;10562599;28;20494;-74
2022/09/22 15:07:30;;;;;;;0.68;0.60;;;;;;;14.59;46.98;100591.13;10549141;28;20115;-73
2022/09/22 15:12:38;;;;;;;0.50;0.47;;;;;;;14.39;47.63;100594.53;10570060;28;20052;-76
2022/09/22 15:23:02;;;;;;;0.80;0.50;;;;;;;14.18;48.15;100596.22;10541682;28;20094;-74
2022/09/22 15:28:10;;;;;;;0.70;0.50;;;;;;;13.84;49.00;100586.88;10540246;28;20042;-74
2022/09/22 15:33:14;;;;;;;0.70;0.63;;;;;;;13.81;49.39;100594.94;10523486;28;20036;-74
2022/09/22 15:38:20;;;;;;;0.80;0.50;;;;;;;13.81;49.39;100588.75;10569488;28;20439;-74
2022/09/22 15:43:28;;;;;;;0.87;0.50;;;;;;;13.78;48.79;100592.41;10583937;28;20044;-74
2022/09/22 15:48:35;;;;;;;0.55;0.50;;;;;;;13.60;51.19;100598.34;10584519;28;20043;-73
2022/09/22 15:53:39;;;;;;;2.22;0.70;;;;;;;13.73;51.32;100593.50;10565440;28;20075;-73
2022/09/22 15:58:42;;;;;;;1.05;0.52;;;;;;;13.63;51.74;100596.47;10582112;28;20092;-75
2022/09/22 16:03:45;;;;;;;0.93;0.60;;;;;;;13.48;52.56;100594.34;10565348;28;20040;-74
2022/09/22 16:08:50;;;;;;;1.05;0.50;;;;;;;13.68;50.79;100591.00;10524435;28;20375;-74
2022/09/22 16:13:51;;;;;;;0.70;0.60;;;;;;;13.54;50.50;100577.41;10539604;28;20040;-75
2022/09/22 16:18:57;;;;;;;0.85;0.50;;;;;;;13.34;51.73;100572.84;10522086;28;20036;-74
2022/09/22 16:24:01;;;;;;;1.88;0.80;;;;;;;13.07;53.78;100572.81;10539888;28;20048;-74
2022/09/22 16:29:06;;;;;;;1.80;1.45;;;;;;;12.90;55.34;100569.03;10542737;28;20070;-74
2022/09/22 16:34:09;;;;;;;2.13;1.00;;;;;;;12.74;56.50;100574.78;10548309;28;20559;-74
2022/09/22 16:39:11;;;;;;;2.03;1.52;;;;;;;12.67;57.67;100567.13;10547479;28;20040;-74
2022/09/22 16:44:14;;;;;;;2.58;1.20;;;;;;;12.73;59.33;100570.41;10547451;28;20098;-73
2022/09/22 16:49:18;;;;;;;2.03;0.90;;;;;;;12.67;64.15;100570.63;10528966;28;20047;-74
2022/09/22 16:54:20;;;;;;;8.38;1.48;;;;;;;12.57;64.03;100571.81;10547717;28;20043;-75
2022/09/22 16:59:22;;;;;;;2.60;1.10;;;;;;;12.32;64.88;100569.09;10554588;28;20065;-74
2022/09/22 17:04:24;;;;;;;1.42;1.15;;;;;;;12.08;65.75;100568.03;10586572;28;20044;-75
2022/09/22 17:09:26;;;;;;;3.65;1.20;;;;;;;11.86;67.54;100573.94;10548638;28;20110;-73
2022/09/22 17:14:29;;;;;;;1.60;1.50;;;;;;;11.44;69.24;100575.09;10528550;28;20060;-74
2022/09/22 17:19:31;;;;;;;2.00;1.30;;;;;;;11.28;70.54;100583.38;10547285;28;20105;-74
2022/09/22 17:24:33;;;;;;;3.70;1.98;;;;;;;11.38;74.03;100576.13;10529617;28;20520;-74
2022/09/22 17:29:34;;;;;;;2.85;2.55;;;;;;;11.51;73.31;100585.41;10547007;28;20452;-73
2022/09/22 17:34:37;;;;;;;4.13;3.72;;;;;;;11.30;73.22;100588.59;10546442;28;20051;-73
2022/09/22 17:39:39;;;;;;;4.25;2.92;;;;;;;11.26;73.83;100586.97;10545562;28;20123;-74
2022/09/22 17:44:40;;;;;;;4.72;2.58;;;;;;;11.15;73.65;100583.72;10545574;28;20184;-73
2022/09/22 17:55:10;;;;;;;3.65;2.58;;;;;;;10.69;76.12;100577.81;10546925;28;20062;-73
2022/09/22 18:00:15;;;;;;;4.57;3.10;;;;;;;10.27;78.39;100582.28;10580507;28;20055;-73
2022/09/22 18:05:20;;;;;;;6.30;5.80;;;;;;;10.38;78.04;100580.28;10559171;28;20052;-73
2022/09/22 18:10:25;;;;;;;4.75;3.72;;;;;;;10.35;78.15;100585.59;10545477;28;20048;-74
2022/09/22 18:15:28;;;;;;;3.35;3.05;;;;;;;10.06;78.70;100588.84;10545692;28;20039;-74
2022/09/22 18:20:30;;;;;;;4.72;3.38;;;;;;;10.06;81.24;100601.97;10527754;28;20075;-73
2022/09/22 18:25:32;;;;;;;6.32;3.72;;;;;;;9.65;82.73;100603.66;10544986;28;20055;-73
2022/09/22 18:30:35;;;;;;;5.13;4.32;;;;;;;9.53;83.69;100602.13;10526583;28;20052;-73
2022/09/22 18:35:37;;;;;;;4.60;4.10;;;;;;;9.66;82.77;100599.28;10544533;28;20065;-74
2022/09/22 18:40:39;;;;;;;6.35;4.20;;;;;;;9.72;82.07;100600.00;10545115;28;20055;-73
2022/09/22 18:45:42;;;;;;;5.07;4.57;;;;;;;9.60;82.52;100600.22;10543546;28;20323;-74
2022/09/22 18:50:44;;;;;;;4.50;3.80;;;;;;;9.43;83.21;100599.66;10543360;28;20048;-73
2022/09/22 18:55:47;;;;;;;5.25;4.85;;;;;;;9.44;83.59;100598.81;10543778;28;20367;-73
2022/09/22 19:00:50;;;;;;;8.55;4.70;;;;;;;9.57;82.85;100611.66;10563527;28;20101;-73
2022/09/22 19:05:52;;;;;;;5.80;5.30;;;;;;;9.36;83.51;100601.56;10571094;28;20044;-73
2022/09/22 19:10:54;;;;;;;5.78;4.63;;;;;;;9.09;84.73;100600.28;10544169;28;20082;-74
2022/09/22 19:15:57;;;;;;;5.28;4.68;;;;;;;8.90;87.66;100611.94;10544041;28;20405;-74
2022/09/22 19:21:02;;;;;;;6.57;5.97;;;;;;;9.29;87.97;100598.16;10523841;28;20040;-74
2022/09/22 19:26:04;;;;;;;8.40;5.85;;;;;;;8.99;89.60;100604.81;10541793;28;20058;-75
2022/09/22 19:45:44;;;;;;;9.65;8.75;;;;;;;8.70;89.80;100596.53;10548855;28;20465;-87
2022/09/22 19:51:35;;;;;;;9.73;8.25;;;;;;;8.33;92.17;100602.28;10393340;28;20069;-85
2022/09/22 19:57:11;;;;;;;8.57;7.30;;;;;;;8.20;92.43;100606.81;10410628;28;20074;-86
2022/09/22 20:02:23;;;;;;;6.40;5.90;;;;;;;8.12;93.87;100602.53;10421000;28;20053;-86
2022/09/22 20:07:28;;;;;;;7.22;6.53;;;;;;;8.09;93.67;100599.06;10408468;28;20136;-86
2022/09/22 20:12:29;;;;;;;7.18;6.47;;;;;;;7.97;94.15;100601.84;10414840;28;20495;-84
2022/09/22 20:17:31;;;;;;;6.70;6.07;;;;;;;7.93;94.30;100601.91;10455101;28;20032;-85
2022/09/22 20:22:34;;;;;;;6.97;6.28;;;;;;;7.83;96.12;100598.50;10581087;28;20036;-86
2022/09/22 20:27:36;;;;;;;7.30;6.57;;;;;;;7.76;97.32;100607.34;10553385;28;20040;-83
2022/09/22 20:33:24;;;;;;;8.13;6.85;;;;;;;8.10;97.37;100605.16;10547147;28;20074;-82
2022/09/22 20:38:50;;;;;;;7.22;6.45;;;;;;;8.00;97.15;100609.66;10547061;28;20044;-82
2022/09/22 20:51:56;;;;;;;6.15;5.55;;;;;;;7.73;96.18;100602.13;10563866;28;20044;-82
2022/09/22 20:57:54;;;;;;;7.43;5.60;;;;;;;7.57;97.30;100598.81;10417384;28;20057;-82
2022/09/22 21:04:23;;;;;;;;;;;;;;;;;;;;;
2022/09/22 21:11:19;;;;;;;5.55;5.05;;;;;;;7.92;94.50;100594.91;10252481;28;20083;-81
2022/09/22 21:18:05;;;;;;;;;;;;;;;;;;;;;
2022/09/22 21:44:49;;;;;;;;;;;;;;;;;;;;;
2022/09/22 21:57:57;;;;;;;6.35;5.85;;;;;;;7.28;96.01;100589.50;10104205;29;20113;-81
2022/09/22 22:38:10;;;;;;;7.13;6.50;;;;;;;6.85;98.97;100581.16;9921576;30;20062;-82
2022/09/22 22:43:15;;;;;;;6.53;6.03;;;;;;;6.87;98.95;100582.03;9925609;29;20059;-83
2022/09/22 22:48:35;;;;;;;6.53;5.90;;;;;;;6.79;99.01;100573.38;10003504;29;20046;-84
2022/09/22 22:53:37;;;;;;;5.88;5.28;;;;;;;6.56;98.67;100576.16;9983956;29;20059;-85
2022/09/22 22:58:39;;;;;;;5.47;4.80;;;;;;;6.44;100.00;100576.22;10039979;29;20057;-84
2022/09/22 23:03:48;;;;;;;5.50;5.10;;;;;;;6.31;100.00;100573.69;10143904;28;20054;-84
2022/09/22 23:08:50;;;;;;;5.32;4.82;;;;;;;6.49;99.54;100575.31;10325419;28;20089;-84
2022/09/22 23:13:55;;;;;;;5.65;4.75;;;;;;;6.50;97.43;100570.97;10495067;28;20059;-84
2022/09/22 23:18:58;;;;;;;7.15;5.30;;;;;;;6.26;99.09;100578.06;10551790;28;20072;-84
2022/09/22 23:24:01;;;;;;;5.45;4.53;;;;;;;6.16;99.87;100563.34;10522395;28;20052;-84
2022/09/22 23:29:05;;;;;;;4.78;4.25;;;;;;;6.06;100.00;100554.69;10515990;28;20083;-84
2022/09/22 23:34:07;;;;;;;5.07;4.68;;;;;;;5.85;100.00;100546.94;10531385;28;20493;-84
2022/09/22 23:39:10;;;;;;;6.03;5.15;;;;;;;5.83;100.00;100551.28;10533304;28;20040;-84
2022/09/22 23:44:12;;;;;;;5.43;4.95;;;;;;;5.81;100.00;100542.59;10537614;28;20476;-84
2022/09/22 23:49:14;;;;;;;5.25;4.47;;;;;;;6.11;99.76;100545.94;10520885;28;20098;-83
2022/09/22 23:54:15;;;;;;;7.10;4.53;;;;;;;6.14;97.32;100540.72;10571848;28;20032;-85
2022/09/22 23:59:17;;;;;;;4.57;4.13;;;;;;;5.88;100.00;100533.00;10567451;28;20498;-85
